createdAt,value
2019-02-09T00:01:38.163Z,2.50
2019-02-09T00:04:04.509Z,2.40
2019-02-09T00:06:32.291Z,3.10
2019-02-09T00:08:58.104Z,2.35
2019-02-09T00:11:27.300Z,1.80
2019-02-09T00:13:53.425Z,2.40
2019-02-09T00:16:19.356Z,2.27
2019-02-09T00:18:45.160Z,1.97
2019-02-09T00:21:11.027Z,2.93
2019-02-09T00:23:39.739Z,2.80
2019-02-09T00:26:05.963Z,1.67
2019-02-09T00:28:34.687Z,1.90
2019-02-09T00:31:00.807Z,2.00
2019-02-09T00:33:29.386Z,1.10
2019-02-09T00:35:55.303Z,1.47
2019-02-09T00:38:24.200Z,1.80
2019-02-09T00:40:50.056Z,1.25
2019-02-09T00:43:18.940Z,1.30
2019-02-09T00:45:44.860Z,1.82
2019-02-09T00:48:14.027Z,1.57
2019-02-09T00:50:40.209Z,3.92
2019-02-09T00:53:06.310Z,1.55
2019-02-09T00:55:32.116Z,1.90
2019-02-09T00:57:58.080Z,1.53
2019-02-09T01:00:31.754Z,1.50
2019-02-09T01:02:58.178Z,2.37
2019-02-09T01:05:28.142Z,1.77
2019-02-09T01:07:54.157Z,1.80
2019-02-09T01:10:20.438Z,1.65
2019-02-09T01:12:46.288Z,1.60
2019-02-09T01:15:14.216Z,2.20
2019-02-09T01:17:40.046Z,1.87
2019-02-09T01:20:09.593Z,1.87
2019-02-09T01:22:35.849Z,2.02
2019-02-09T01:25:03.262Z,1.70
2019-02-09T01:27:29.076Z,1.80
2019-02-09T01:30:02.275Z,1.80
2019-02-09T01:32:22.953Z,1.90
2019-02-09T01:34:48.949Z,1.30
2019-02-09T01:37:14.766Z,2.00
2019-02-09T01:39:40.870Z,2.07
2019-02-09T01:42:07.759Z,1.87
2019-02-09T01:44:33.868Z,1.50
2019-02-09T01:46:59.685Z,1.60
2019-02-09T01:49:25.499Z,2.00
2019-02-09T01:51:54.098Z,2.03
2019-02-09T01:54:20.224Z,3.08
2019-02-09T01:56:48.970Z,2.15
2019-02-09T01:59:15.105Z,1.90
2019-02-09T02:01:44.279Z,1.60
2019-02-09T02:04:10.373Z,2.35
2019-02-09T02:06:36.314Z,1.85
2019-02-09T02:09:04.971Z,1.80
2019-02-09T02:11:31.072Z,1.42
2019-02-09T02:13:57.160Z,1.20
2019-02-09T02:16:23.510Z,1.65
2019-02-09T02:18:52.694Z,1.62
2019-02-09T02:21:18.816Z,1.75
2019-02-09T02:23:44.645Z,1.27
2019-02-09T02:26:10.753Z,0.90
2019-02-09T02:28:38.782Z,1.60
2019-02-09T02:31:04.733Z,1.07
2019-02-09T02:33:36.306Z,1.67
2019-02-09T02:36:02.417Z,0.90
2019-02-09T02:38:28.263Z,1.20
2019-02-09T02:40:54.446Z,1.30
2019-02-09T02:43:20.309Z,0.85
2019-02-09T02:45:46.358Z,1.20
2019-02-09T02:48:12.450Z,1.02
2019-02-09T02:50:41.319Z,1.10
2019-02-09T02:53:07.154Z,1.20
2019-02-09T02:55:35.726Z,0.90
2019-02-09T02:58:01.560Z,0.90
2019-02-09T03:00:32.892Z,1.17
2019-02-09T03:02:59.342Z,1.12
2019-02-09T03:05:25.386Z,0.88
2019-02-09T03:07:51.902Z,1.00
2019-02-09T03:10:19.711Z,0.90
2019-02-09T03:12:45.654Z,1.60
2019-02-09T03:15:20.132Z,1.50
2019-02-09T03:17:46.098Z,1.02
2019-02-09T03:20:35.203Z,1.07
2019-02-09T03:23:01.054Z,1.15
2019-02-09T03:25:28.991Z,1.43
2019-02-09T03:27:55.113Z,0.75
2019-02-09T03:30:22.623Z,1.20
2019-02-09T03:32:48.565Z,0.80
2019-02-09T03:35:15.222Z,0.73
2019-02-09T03:37:41.443Z,0.90
2019-02-09T03:40:21.666Z,0.85
2019-02-09T03:42:47.723Z,0.70
2019-02-09T03:45:16.323Z,0.60
2019-02-09T03:47:42.435Z,0.80
2019-02-09T03:50:14.013Z,0.70
2019-02-09T03:52:39.864Z,0.90
2019-02-09T03:55:06.077Z,0.90
2019-02-09T03:57:31.925Z,0.90
2019-02-09T03:59:58.002Z,0.80
2019-02-09T04:02:24.066Z,0.80
2019-02-09T04:04:50.196Z,0.90
2019-02-09T04:07:16.002Z,0.90
2019-02-09T04:09:41.849Z,0.80
2019-02-09T04:12:07.774Z,1.13
2019-02-09T04:14:33.620Z,1.10
2019-02-09T04:16:59.437Z,0.70
2019-02-09T04:19:25.329Z,0.80
2019-02-09T04:21:51.150Z,0.83
2019-02-09T04:24:17.018Z,0.90
2019-02-09T04:26:42.857Z,1.00
2019-02-09T04:29:08.691Z,1.07
2019-02-09T04:31:34.624Z,0.97
2019-02-09T04:34:00.455Z,1.13
2019-02-09T04:36:26.306Z,0.80
2019-02-09T04:38:52.130Z,0.60
2019-02-09T04:41:17.974Z,0.80
2019-02-09T04:43:43.867Z,0.80
2019-02-09T04:46:09.702Z,1.20
2019-02-09T04:48:35.548Z,0.70
2019-02-09T04:51:01.372Z,0.80
2019-02-09T04:53:27.194Z,1.00
2019-02-09T04:55:53.061Z,1.20
2019-02-09T04:58:18.879Z,1.13
2019-02-09T05:00:44.724Z,0.80
2019-02-09T05:03:10.874Z,0.70
2019-02-09T05:05:36.695Z,0.80
2019-02-09T05:08:02.658Z,0.87
2019-02-09T05:10:28.898Z,0.60
2019-02-09T05:12:54.756Z,0.78
2019-02-09T05:15:21.253Z,0.53
2019-02-09T05:17:47.684Z,0.70
2019-02-09T05:20:15.642Z,0.80
2019-02-09T05:22:41.476Z,0.70
2019-02-09T05:25:09.898Z,0.73
2019-02-09T05:27:35.766Z,0.88
2019-02-09T05:30:02.577Z,0.70
2019-02-09T05:32:28.708Z,0.88
2019-02-09T05:34:54.541Z,0.88
2019-02-09T05:37:20.401Z,0.70
2019-02-09T05:39:46.234Z,0.60
2019-02-09T05:42:16.899Z,0.80
2019-02-09T05:44:42.742Z,0.60
2019-02-09T05:47:08.833Z,0.77
2019-02-09T05:49:34.679Z,0.70
2019-02-09T05:52:00.950Z,0.70
2019-02-09T05:54:27.326Z,0.60
2019-02-09T05:56:53.128Z,0.60
2019-02-09T05:59:22.351Z,0.80
2019-02-09T06:01:48.203Z,0.72
2019-02-09T06:04:17.429Z,1.10
2019-02-09T06:06:43.234Z,0.72
2019-02-09T06:09:12.323Z,0.70
2019-02-09T06:11:38.306Z,1.00
2019-02-09T06:14:05.958Z,1.20
2019-02-09T06:16:31.808Z,0.80
2019-02-09T06:19:00.421Z,1.43
2019-02-09T06:21:26.319Z,0.80
2019-02-09T06:23:52.105Z,0.70
2019-02-09T06:26:18.239Z,0.60
2019-02-09T06:28:44.043Z,1.00
2019-02-09T06:31:12.915Z,0.70
2019-02-09T06:33:38.725Z,0.75
2019-02-09T06:36:07.766Z,0.70
2019-02-09T06:38:33.604Z,0.60
2019-02-09T06:41:02.697Z,0.80
2019-02-09T06:43:28.543Z,0.70
2019-02-09T06:45:57.564Z,1.27
2019-02-09T06:48:46.310Z,0.70
2019-02-09T06:51:12.449Z,0.90
2019-02-09T06:53:38.277Z,1.07
2019-02-09T06:56:04.232Z,1.10
2019-02-09T06:58:30.391Z,0.93
2019-02-09T07:00:56.211Z,1.10
2019-02-09T07:03:22.096Z,0.80
2019-02-09T07:05:48.229Z,0.80
2019-02-09T07:08:14.054Z,0.80
2019-02-09T07:10:40.255Z,1.03
2019-02-09T07:13:06.135Z,1.20
2019-02-09T07:15:33.668Z,0.80
2019-02-09T07:17:59.493Z,0.80
2019-02-09T07:20:25.443Z,0.97
2019-02-09T07:22:51.783Z,0.80
2019-02-09T07:25:18.124Z,1.47
2019-02-09T07:27:44.045Z,0.68
2019-02-09T07:30:16.104Z,1.20
2019-02-09T07:32:41.933Z,0.80
2019-02-09T07:35:10.448Z,0.80
2019-02-09T07:37:36.586Z,0.70
2019-02-09T07:40:06.210Z,0.93
2019-02-09T07:42:32.164Z,0.80
2019-02-09T07:44:58.004Z,0.90
2019-02-09T07:47:23.831Z,0.93
2019-02-09T07:49:49.931Z,1.10
2019-02-09T07:52:15.853Z,0.68
2019-02-09T07:54:41.821Z,0.77
2019-02-09T07:57:07.887Z,0.67
2019-02-09T07:59:33.741Z,0.60
2019-02-09T08:02:04.645Z,1.03
2019-02-09T08:04:27.762Z,0.98
2019-02-09T08:06:53.572Z,0.80
2019-02-09T08:09:19.420Z,0.90
2019-02-09T08:11:45.227Z,1.43
2019-02-09T08:14:11.070Z,1.07
2019-02-09T08:16:37.177Z,0.80
2019-02-09T08:19:03.180Z,0.90
2019-02-09T08:21:29.006Z,1.15
2019-02-09T08:23:55.140Z,1.07
2019-02-09T08:26:24.197Z,0.90
2019-02-09T08:28:50.282Z,0.80
2019-02-09T08:31:17.429Z,0.90
2019-02-09T08:33:43.257Z,1.15
2019-02-09T08:36:12.529Z,1.17
2019-02-09T08:38:38.331Z,1.17
2019-02-09T08:41:08.860Z,2.13
2019-02-09T08:43:34.693Z,1.30
2019-02-09T08:46:03.484Z,1.17
2019-02-09T08:48:29.330Z,0.98
2019-02-09T08:50:59.265Z,1.20
2019-02-09T08:53:25.108Z,2.12
2019-02-09T08:55:51.249Z,1.10
2019-02-09T08:58:17.073Z,1.50
2019-02-09T09:00:43.013Z,1.77
2019-02-09T09:03:09.294Z,1.70
2019-02-09T09:05:35.789Z,0.60
2019-02-09T09:08:04.779Z,1.20
2019-02-09T09:10:30.740Z,1.32
2019-02-09T09:13:00.078Z,0.80
2019-02-09T09:15:38.928Z,1.20
2019-02-09T09:18:05.724Z,0.90
2019-02-09T09:20:34.173Z,0.90
2019-02-09T09:22:59.983Z,2.37
2019-02-09T09:25:26.180Z,1.43
2019-02-09T09:27:52.512Z,0.88
2019-02-09T09:30:24.275Z,0.78
2019-02-09T09:32:50.486Z,1.02
2019-02-09T09:35:16.414Z,1.12
2019-02-09T09:37:42.844Z,0.97
2019-02-09T09:40:12.503Z,0.70
2019-02-09T09:42:38.639Z,1.15
2019-02-09T09:45:08.270Z,0.80
2019-02-09T09:47:34.089Z,0.85
2019-02-09T09:50:00.045Z,1.00
2019-02-09T09:52:25.877Z,1.00
2019-02-09T09:54:51.718Z,0.90
2019-02-09T09:57:17.703Z,1.00
2019-02-09T09:59:43.833Z,0.80
2019-02-09T10:02:09.761Z,1.20
2019-02-09T10:04:35.593Z,1.00
2019-02-09T10:07:01.723Z,1.00
2019-02-09T10:09:27.543Z,1.35
2019-02-09T10:11:53.409Z,1.53
2019-02-09T10:14:19.261Z,1.47
2019-02-09T10:16:45.398Z,1.70
2019-02-09T10:19:11.251Z,0.82
2019-02-09T10:21:37.088Z,0.77
2019-02-09T10:24:03.348Z,0.90
2019-02-09T10:26:29.275Z,1.07
2019-02-09T10:28:55.091Z,1.50
2019-02-09T10:31:25.033Z,1.00
2019-02-09T10:33:50.858Z,1.40
2019-02-09T10:36:19.470Z,1.53
2019-02-09T10:38:45.352Z,1.15
2019-02-09T10:41:11.469Z,1.23
2019-02-09T10:43:37.303Z,1.22
2019-02-09T10:46:03.317Z,1.03
2019-02-09T10:48:29.188Z,1.42
2019-02-09T10:50:55.009Z,1.17
2019-02-09T10:53:25.419Z,0.93
2019-02-09T10:55:51.560Z,0.90
2019-02-09T10:58:18.637Z,1.00
2019-02-09T11:00:50.515Z,0.90
2019-02-09T11:03:16.780Z,1.82
2019-02-09T11:05:42.923Z,1.07
2019-02-09T11:08:08.884Z,1.57
2019-02-09T11:10:35.381Z,1.37
2019-02-09T11:13:05.007Z,1.40
2019-02-09T11:15:30.985Z,1.05
2019-02-09T11:17:57.066Z,1.10
2019-02-09T11:20:23.395Z,0.90
2019-02-09T11:22:52.572Z,1.52
2019-02-09T11:25:19.908Z,1.20
2019-02-09T11:27:48.779Z,1.92
2019-02-09T11:30:23.796Z,1.00
2019-02-09T11:32:49.720Z,1.50
2019-02-09T11:35:15.990Z,1.40
2019-02-09T11:37:41.909Z,1.40
2019-02-09T11:40:27.882Z,1.43
2019-02-09T11:42:54.362Z,1.25
2019-02-09T11:45:22.407Z,1.80
2019-02-09T11:47:48.422Z,2.45
2019-02-09T11:50:15.047Z,1.65
2019-02-09T11:52:41.257Z,2.62
2019-02-09T11:55:10.713Z,1.55
2019-02-09T11:57:36.640Z,1.35
2019-02-09T12:00:08.821Z,1.30
2019-02-09T12:02:34.630Z,1.50
2019-02-09T12:05:00.539Z,2.10
2019-02-09T12:07:26.393Z,1.40
2019-02-09T12:09:52.527Z,1.57
2019-02-09T12:12:18.332Z,1.42
2019-02-09T12:14:50.398Z,1.30
2019-02-09T12:17:16.237Z,1.30
2019-02-09T12:19:42.065Z,2.33
2019-02-09T12:22:07.906Z,1.20
2019-02-09T12:24:34.002Z,1.00
2019-02-09T12:27:00.142Z,1.00
2019-02-09T12:29:25.984Z,1.22
2019-02-09T12:31:52.086Z,0.83
2019-02-09T12:34:17.946Z,1.32
2019-02-09T12:36:44.050Z,1.60
2019-02-09T12:39:10.383Z,1.10
2019-02-09T12:41:36.321Z,2.25
2019-02-09T12:44:02.146Z,1.87
2019-02-09T12:46:27.986Z,1.03
2019-02-09T12:48:54.116Z,1.13
2019-02-09T12:51:20.045Z,1.90
2019-02-09T12:53:46.143Z,0.90
2019-02-09T12:56:12.099Z,1.60
2019-02-09T12:58:38.209Z,1.37
2019-02-09T13:01:04.151Z,1.20
2019-02-09T13:03:31.532Z,1.30
2019-02-09T13:06:00.671Z,3.17
2019-02-09T13:08:26.593Z,1.05
2019-02-09T13:10:52.837Z,2.70
2019-02-09T13:13:18.922Z,1.30
2019-02-09T13:15:44.876Z,1.00
2019-02-09T13:18:10.703Z,1.77
2019-02-09T13:20:36.627Z,1.10
2019-02-09T13:23:04.883Z,1.60
2019-02-09T13:25:30.713Z,0.93
2019-02-09T13:27:56.562Z,1.83
2019-02-09T13:30:36.886Z,1.93
2019-02-09T13:33:03.316Z,1.98
2019-02-09T13:35:29.460Z,1.35
2019-02-09T13:37:55.387Z,2.30
2019-02-09T13:40:22.528Z,1.90
2019-02-09T13:42:48.470Z,1.70
2019-02-09T13:45:40.818Z,1.43
2019-02-09T13:48:07.352Z,1.30
2019-02-09T13:50:34.032Z,1.00
2019-02-09T13:53:00.279Z,1.30
2019-02-09T13:55:26.443Z,1.25
2019-02-09T13:57:52.478Z,1.30
2019-02-09T14:00:23.197Z,1.52
2019-02-09T14:02:49.255Z,1.00
2019-02-09T14:05:15.205Z,1.02
2019-02-09T14:07:41.757Z,1.50
2019-02-09T14:10:18.812Z,2.02
2019-02-09T14:12:44.671Z,1.00
2019-02-09T14:15:25.383Z,1.17
2019-02-09T14:17:51.827Z,1.45
2019-02-09T14:20:17.964Z,1.00
2019-02-09T14:22:44.140Z,1.27
2019-02-09T14:25:14.605Z,1.40
2019-02-09T14:27:41.202Z,1.25
2019-02-09T14:30:16.640Z,1.00
2019-02-09T14:32:42.561Z,1.55
2019-02-09T14:35:09.700Z,0.90
2019-02-09T14:37:35.540Z,0.90
2019-02-09T14:40:01.524Z,0.80
2019-02-09T14:42:27.487Z,1.30
2019-02-09T14:44:53.702Z,1.30
2019-02-09T14:47:19.541Z,1.02
2019-02-09T14:49:45.729Z,1.10
2019-02-09T14:52:11.830Z,4.45
2019-02-09T14:54:37.646Z,0.90
2019-02-09T14:57:03.792Z,1.10
2019-02-09T14:59:29.609Z,1.17
2019-02-09T15:01:55.549Z,1.20
2019-02-09T15:04:21.694Z,1.07
2019-02-09T15:06:47.791Z,1.05
2019-02-09T15:09:13.621Z,1.20
2019-02-09T15:11:39.774Z,0.93
2019-02-09T15:14:05.800Z,2.85
2019-02-09T15:16:32.632Z,1.15
2019-02-09T15:18:58.439Z,1.10
2019-02-09T15:21:24.571Z,0.97
2019-02-09T15:23:50.456Z,1.02
2019-02-09T15:26:16.265Z,1.07
2019-02-09T15:28:43.008Z,1.03
2019-02-09T15:31:08.968Z,1.32
2019-02-09T15:33:34.810Z,1.47
2019-02-09T15:36:00.721Z,1.77
2019-02-09T15:38:26.554Z,1.20
2019-02-09T15:40:52.423Z,1.43
2019-02-09T15:43:18.264Z,1.07
2019-02-09T15:45:44.378Z,1.20
2019-02-09T15:48:10.216Z,1.15
2019-02-09T15:50:36.069Z,1.00
2019-02-09T15:53:01.921Z,1.30
2019-02-09T15:55:28.026Z,1.73
2019-02-09T15:57:53.896Z,1.00
2019-02-09T16:00:30.248Z,1.03
2019-02-09T16:02:57.515Z,1.30
2019-02-09T16:05:24.017Z,1.57
2019-02-09T16:07:50.154Z,2.00
2019-02-09T16:10:20.265Z,3.22
2019-02-09T16:12:46.376Z,1.80
2019-02-09T16:15:15.275Z,1.20
2019-02-09T16:17:41.423Z,1.50
2019-02-09T16:20:11.039Z,2.30
2019-02-09T16:22:36.890Z,2.20
2019-02-09T16:25:05.742Z,2.03
2019-02-09T16:27:31.811Z,1.72
2019-02-09T16:29:57.649Z,3.75
2019-02-09T16:32:23.559Z,1.77
2019-02-09T16:34:49.412Z,2.07
2019-02-09T16:37:15.238Z,1.60
2019-02-09T16:39:41.378Z,3.20
2019-02-09T16:42:07.469Z,2.02
2019-02-09T16:44:33.315Z,1.72
2019-02-09T16:46:59.134Z,1.80
2019-02-09T16:49:24.972Z,2.10
2019-02-09T16:51:50.969Z,2.23
2019-02-09T16:54:17.080Z,1.70
2019-02-09T16:56:42.941Z,2.00
2019-02-09T16:59:08.954Z,3.20
2019-02-09T17:01:38.244Z,1.57
2019-02-09T17:04:04.157Z,1.30
2019-02-09T17:06:29.981Z,1.50
2019-02-09T17:08:55.825Z,1.60
2019-02-09T17:11:21.665Z,1.83
2019-02-09T17:13:47.493Z,2.03
2019-02-09T17:16:13.329Z,1.60
2019-02-09T17:18:39.159Z,1.50
2019-02-09T17:21:05.029Z,1.70
2019-02-09T17:23:30.877Z,1.80
2019-02-09T17:25:56.685Z,2.20
2019-02-09T17:28:22.628Z,1.70
2019-02-09T17:30:48.488Z,2.90
2019-02-09T17:33:14.691Z,3.33
2019-02-09T17:35:40.509Z,1.70
2019-02-09T17:38:06.709Z,1.40
2019-02-09T17:40:35.771Z,1.72
2019-02-09T17:43:01.668Z,1.75
2019-02-09T17:45:30.425Z,1.80
2019-02-09T17:47:56.249Z,1.52
2019-02-09T17:50:22.609Z,2.50
2019-02-09T17:52:48.526Z,1.82
2019-02-09T17:55:18.659Z,2.20
2019-02-09T17:57:44.776Z,2.00
2019-02-09T18:00:13.695Z,2.20
2019-02-09T18:02:39.513Z,2.02
2019-02-09T18:05:05.566Z,2.07
2019-02-09T18:07:31.689Z,1.22
2019-02-09T18:09:57.557Z,1.47
2019-02-09T18:12:23.755Z,2.17
2019-02-09T18:14:49.897Z,2.00
2019-02-09T18:17:15.817Z,2.10
2019-02-09T18:19:42.774Z,2.03
2019-02-09T18:22:09.096Z,2.47
2019-02-09T18:24:34.965Z,4.05
2019-02-09T18:27:00.790Z,1.43
2019-02-09T18:29:26.918Z,2.07
2019-02-09T18:31:52.756Z,1.82
2019-02-09T18:34:18.616Z,1.93
2019-02-09T18:36:44.705Z,3.23
2019-02-09T18:39:10.636Z,2.37
2019-02-09T18:41:36.528Z,2.30
2019-02-09T18:44:02.826Z,2.97
2019-02-09T18:46:28.665Z,2.20
2019-02-09T18:48:54.815Z,2.50
2019-02-09T18:51:24.403Z,2.40
2019-02-09T18:53:50.529Z,2.77
2019-02-09T18:56:19.695Z,1.70
2019-02-09T18:58:45.483Z,1.85
2019-02-09T19:01:14.373Z,2.23
2019-02-09T19:03:40.189Z,2.92
2019-02-09T19:06:09.092Z,2.50
2019-02-09T19:08:34.929Z,2.62
2019-02-09T19:11:03.749Z,1.80
2019-02-09T19:13:29.633Z,2.20
2019-02-09T19:15:55.597Z,1.50
2019-02-09T19:18:21.411Z,2.10
2019-02-09T19:20:54.094Z,1.97
2019-02-09T19:23:20.235Z,2.65
2019-02-09T19:25:46.473Z,1.37
2019-02-09T19:28:12.286Z,2.60
2019-02-09T19:30:38.249Z,2.37
2019-02-09T19:33:05.141Z,3.80
2019-02-09T19:35:30.950Z,2.67
2019-02-09T19:37:59.812Z,1.83
2019-02-09T19:40:26.728Z,1.90
2019-02-09T19:42:56.028Z,1.72
2019-02-09T19:45:28.749Z,1.77
2019-02-09T19:47:54.604Z,1.90
2019-02-09T19:50:20.447Z,1.73
2019-02-09T19:52:46.255Z,1.93
2019-02-09T19:55:22.216Z,1.73
2019-02-09T19:57:48.403Z,2.52
2019-02-09T20:00:38.563Z,1.70
2019-02-09T20:03:05.012Z,2.20
2019-02-09T20:05:30.856Z,2.27
2019-02-09T20:07:56.700Z,3.07
2019-02-09T20:10:29.314Z,2.97
2019-02-09T20:12:55.241Z,1.47
2019-02-09T20:15:21.066Z,1.83
2019-02-09T20:17:46.921Z,1.83
2019-02-09T20:20:17.220Z,2.60
2019-02-09T20:22:43.171Z,1.72
2019-02-09T20:25:17.420Z,1.83
2019-02-09T20:27:43.514Z,2.22
2019-02-09T20:30:13.132Z,1.70
2019-02-09T20:32:38.975Z,2.00
2019-02-09T20:35:08.595Z,3.90
2019-02-09T20:37:34.542Z,1.87
2019-02-09T20:40:00.362Z,2.10
2019-02-09T20:42:26.280Z,2.80
2019-02-09T20:44:52.389Z,2.87
2019-02-09T20:47:18.257Z,2.83
2019-02-09T20:49:44.384Z,2.50
2019-02-09T20:52:10.191Z,2.33
2019-02-09T20:54:36.032Z,4.20
2019-02-09T20:57:01.841Z,3.73
2019-02-09T20:59:33.966Z,2.30
2019-02-09T21:01:59.799Z,2.35
2019-02-09T21:04:25.664Z,2.43
2019-02-09T21:06:51.487Z,2.73
2019-02-09T21:09:17.310Z,2.87
2019-02-09T21:11:43.159Z,3.47
2019-02-09T21:14:08.961Z,1.73
2019-02-09T21:16:34.788Z,2.97
2019-02-09T21:19:00.633Z,2.10
2019-02-09T21:21:26.435Z,2.63
2019-02-09T21:23:52.490Z,1.53
2019-02-09T21:26:18.305Z,2.25
2019-02-09T21:28:44.148Z,2.63
2019-02-09T21:31:09.987Z,2.47
2019-02-09T21:33:35.825Z,1.87
2019-02-09T21:36:01.632Z,2.20
2019-02-09T21:38:27.483Z,1.77
2019-02-09T21:40:53.313Z,2.03
2019-02-09T21:43:19.423Z,3.27
2019-02-09T21:45:45.794Z,2.20
2019-02-09T21:48:11.593Z,2.60
2019-02-09T21:50:37.809Z,2.43
2019-02-09T21:53:05.214Z,2.62
2019-02-09T21:55:31.059Z,1.90
2019-02-09T21:57:57.060Z,1.73
2019-02-09T22:00:26.120Z,2.10
2019-02-09T22:02:52.335Z,2.00
2019-02-09T22:05:18.518Z,2.42
2019-02-09T22:07:44.340Z,2.00
2019-02-09T22:10:16.558Z,1.70
2019-02-09T22:12:42.613Z,2.33
2019-02-09T22:15:10.678Z,1.45
2019-02-09T22:17:36.664Z,1.65
2019-02-09T22:20:06.331Z,3.00
2019-02-09T22:22:32.756Z,2.50
2019-02-09T22:24:58.813Z,4.58
2019-02-09T22:27:25.091Z,3.25
2019-02-09T22:29:50.922Z,3.52
2019-02-09T22:32:17.024Z,2.10
2019-02-09T22:34:43.107Z,1.90
2019-02-09T22:37:09.025Z,2.70
2019-02-09T22:39:35.322Z,2.92
2019-02-09T22:42:01.159Z,2.10
2019-02-09T22:44:27.035Z,1.80
2019-02-09T22:46:53.136Z,2.00
2019-02-09T22:49:19.042Z,1.60
2019-02-09T22:51:44.987Z,1.87
2019-02-09T22:54:10.886Z,1.30
2019-02-09T22:56:36.968Z,1.90
2019-02-09T22:59:03.011Z,2.25
2019-02-09T23:01:35.909Z,1.60
2019-02-09T23:04:05.531Z,1.98
2019-02-09T23:06:41.225Z,2.67
2019-02-09T23:09:08.292Z,1.67
2019-02-09T23:11:34.143Z,1.45
2019-02-09T23:14:00.287Z,2.33
2019-02-09T23:16:26.136Z,1.80
2019-02-09T23:18:51.976Z,2.03
2019-02-09T23:21:17.791Z,2.97
2019-02-09T23:23:43.998Z,2.17
2019-02-09T23:26:09.859Z,2.33
2019-02-09T23:28:35.684Z,2.80
2019-02-09T23:31:01.932Z,2.60
2019-02-09T23:33:27.752Z,3.00
2019-02-09T23:35:53.878Z,2.57
2019-02-09T23:38:19.741Z,1.65
2019-02-09T23:40:45.564Z,2.00
2019-02-09T23:43:11.673Z,1.47
2019-02-09T23:45:37.775Z,1.98
2019-02-09T23:48:03.612Z,2.17
2019-02-09T23:50:29.437Z,1.50
2019-02-09T23:52:55.273Z,2.60
2019-02-09T23:55:21.151Z,1.47
2019-02-09T23:57:47.212Z,2.20
